Time;durP1;ratioP1;P1;durP2;ratioP2;P2;SDS_P1;SDS_P2;PMS_P1;PMS_P2;Temp;Humidity;BMP_temperature;BMP_pressure;BME280_temperature;BME280_humidity;BME280_pressure;Samples;Min_cycle;Max_cycle;Signal;HPM_P1;HPM_P2
2023/12/30 00:01:33;;;;;;;23.75;13.05;;;;;;;;;;5082335;28;20035;-71
2023/12/30 00:03:59;;;;;;;21.02;12.52;;;;;;;;;;5082715;28;20108;-71
2023/12/30 00:06:24;;;;;;;24.25;13.20;;;4.50;99.90;;;;;;5064351;28;20216;-72
2023/12/30 00:08:50;;;;;;;22.55;12.90;;;;;;;;;;5064449;28;20028;-73
2023/12/30 00:11:16;;;;;;;21.52;12.27;;;;;;;;;;5082326;28;20032;-73
2023/12/30 00:13:42;;;;;;;21.25;12.93;;;;;;;;;;5064375;28;20051;-73
2023/12/30 00:16:10;;;;;;;16.17;10.20;;;4.30;99.90;;;;;;5061021;28;20265;-73
2023/12/30 00:18:36;;;;;;;22.50;11.85;;;;;;;;;;5051046;28;20021;-71
2023/12/30 00:21:03;;;;;;;18.15;11.43;;;;;;;;;;5061914;28;20029;-70
2023/12/30 00:23:29;;;;;;;23.90;13.32;;;;;;;;;;5062042;28;20083;-70
2023/12/30 00:25:54;;;;;;;19.40;11.27;;;4.20;99.90;;;;;;5061875;28;20036;-70
2023/12/30 00:28:21;;;;;;;20.98;10.85;;;4.10;99.90;;;;;;5062005;28;20201;-71
2023/12/30 00:30:47;;;;;;;17.73;10.50;;;;;;;;;;5046049;28;20114;-71
2023/12/30 00:33:13;;;;;;;15.07;9.07;;;4.20;99.90;;;;;;5061790;28;20017;-70
2023/12/30 00:35:39;;;;;;;16.45;9.95;;;;;;;;;;5061917;28;20096;-70
2023/12/30 00:38:05;;;;;;;19.75;10.45;;;;;;;;;;5061639;28;20020;-70
2023/12/30 00:40:30;;;;;;;20.27;12.63;;;4.20;99.90;;;;;;5061612;28;20043;-70
2023/12/30 00:42:56;;;;;;;19.55;11.02;;;;;;;;;;5061001;28;20096;-71
2023/12/30 00:45:22;;;;;;;22.95;12.55;;;;;;;;;;5061269;28;20032;-70
2023/12/30 00:47:48;;;;;;;16.85;10.75;;;;;;;;;;5061953;28;20017;-70
2023/12/30 00:50:15;;;;;;;18.23;10.70;;;;;;;;;;5081336;28;20042;-70
2023/12/30 00:52:40;;;;;;;19.63;11.20;;;4.40;99.90;;;;;;5081711;28;20043;-70
2023/12/30 00:55:07;;;;;;;20.58;11.55;;;4.50;99.90;;;;;;5081476;28;20031;-70
2023/12/30 00:57:33;;;;;;;16.17;9.43;;;;;;;;;;5081611;28;20209;-70
2023/12/30 00:59:58;;;;;;;13.70;7.85;;;4.20;99.90;;;;;;5081136;28;20033;-70
2023/12/30 01:02:24;;;;;;;13.35;7.78;;;;;;;;;;5081111;28;20091;-70
2023/12/30 01:04:50;;;;;;;13.95;7.90;;;;;;;;;;5081065;28;20032;-70
2023/12/30 01:07:16;;;;;;;14.02;8.48;;;4.20;99.90;;;;;;5081075;28;20117;-70
2023/12/30 01:09:42;;;;;;;13.95;9.02;;;;;;;;;;5081240;28;20032;-70
2023/12/30 01:12:08;;;;;;;15.15;9.25;;;;;;;;;;5065525;28;20025;-70
2023/12/30 01:14:34;;;;;;;13.82;8.13;;;4.10;99.90;;;;;;5048925;28;20305;-69
2023/12/30 01:17:00;;;;;;;16.00;8.73;;;;;;;;;;5040967;28;20025;-69
2023/12/30 01:19:26;;;;;;;17.52;8.90;;;;;;;;;;5040733;28;20281;-70
2023/12/30 01:21:51;;;;;;;15.57;8.90;;;4.10;99.90;;;;;;5040919;28;20021;-70
2023/12/30 01:24:17;;;;;;;13.40;8.45;;;;;;;;;;5040712;28;20105;-70
2023/12/30 01:26:43;;;;;;;15.38;8.65;;;4.20;99.90;;;;;;5040869;28;20030;-70
2023/12/30 01:29:09;;;;;;;15.75;9.10;;;4.10;99.90;;;;;;5078628;28;20025;-70
2023/12/30 01:31:35;;;;;;;17.60;9.95;;;;;;;;;;5080655;28;20039;-71
2023/12/30 01:34:01;;;;;;;18.33;10.45;;;4.10;99.90;;;;;;5080812;28;20027;-70
2023/12/30 01:36:26;;;;;;;19.35;10.15;;;4.00;99.90;;;;;;5080843;28;20216;-70
2023/12/30 01:38:52;;;;;;;15.75;10.18;;;;;;;;;;5080835;28;20042;-70
2023/12/30 01:41:21;;;;;;;18.90;11.25;;;3.90;99.90;;;;;;5063641;28;20136;-70
2023/12/30 01:43:47;;;;;;;21.80;11.63;;;;;;;;;;5081389;28;20119;-70
2023/12/30 01:46:13;;;;;;;17.52;9.73;;;3.80;99.90;;;;;;5080714;28;20029;-70
2023/12/30 01:48:39;;;;;;;17.15;10.40;;;3.40;99.90;;;;;;5062432;28;20067;-70
2023/12/30 01:51:08;;;;;;;16.58;9.52;;;3.60;99.90;;;;;;5080500;28;20047;-70
2023/12/30 01:53:36;;;;;;;;;;;3.60;99.90;;;;;;5081320;28;20328;-69
2023/12/30 01:56:02;;;;;;;13.43;7.85;;;3.60;99.90;;;;;;5081083;28;19908;-70
2023/12/30 01:58:28;;;;;;;17.40;9.80;;;;;;;;;;5080579;28;20043;-70
2023/12/30 02:00:55;;;;;;;17.25;9.25;;;3.30;99.90;;;;;;5080523;28;20063;-70
2023/12/30 02:03:21;;;;;;;17.77;9.35;;;3.50;99.90;;;;;;5080359;28;20044;-70
2023/12/30 02:05:48;;;;;;;20.38;10.88;;;3.50;99.90;;;;;;5062347;28;20017;-69
2023/12/30 02:08:17;;;;;;;22.63;11.95;;;3.60;99.90;;;;;;5062351;28;20327;-70
2023/12/30 02:10:43;;;;;;;;;;;3.60;99.90;;;;;;5080737;28;20393;-69
2023/12/30 02:13:09;;;;;;;16.75;9.52;;;;;;;;;;5080562;28;19912;-70
2023/12/30 02:15:35;;;;;;;17.38;10.43;;;;;;;;;;5080301;28;20029;-70
2023/12/30 02:18:01;;;;;;;15.77;10.23;;;;;;;;;;5079807;28;20216;-69
2023/12/30 02:20:28;;;;;;;18.38;9.77;;;3.70;99.90;;;;;;5080245;28;20393;-69
2023/12/30 02:22:54;;;;;;;16.17;10.15;;;;;;;;;;5080014;28;20024;-70
2023/12/30 02:25:20;;;;;;;19.63;11.73;;;;;;;;;;5080199;28;20240;-70
2023/12/30 02:27:46;;;;;;;17.77;11.20;;;3.60;99.90;;;;;;5080072;28;20071;-70
2023/12/30 02:30:12;;;;;;;18.58;9.85;;;3.70;99.90;;;;;;5080085;28;20267;-70
2023/12/30 02:32:38;;;;;;;20.95;11.57;;;3.60;99.90;;;;;;5079614;28;20336;-69
2023/12/30 02:35:04;;;;;;;17.02;10.65;;;;;;;;;;5080202;28;20095;-70
2023/12/30 02:37:30;;;;;;;21.05;10.95;;;3.70;99.90;;;;;;5080027;28;20032;-70
2023/12/30 02:39:56;;;;;;;18.73;11.23;;;;;;;;;;5079912;28;20028;-70
2023/12/30 02:42:22;;;;;;;15.13;8.90;;;;;;;;;;5079846;28;20073;-70
2023/12/30 02:44:48;;;;;;;20.88;10.43;;;;;;;;;;5062189;28;20032;-68
2023/12/30 02:47:13;;;;;;;18.10;10.32;;;3.40;99.90;;;;;;5080028;28;20028;-69
2023/12/30 02:49:44;;;;;;;17.45;9.05;;;3.50;99.90;;;;;;5069973;28;20257;-68
2023/12/30 02:52:11;;;;;;;21.17;10.43;;;;;;;;;;5041922;28;20041;-68
2023/12/30 02:54:36;;;;;;;20.65;10.60;;;3.50;99.90;;;;;;5060086;28;20116;-69
2023/12/30 02:57:03;;;;;;;16.95;9.95;;;;;;;;;;5059973;28;20301;-69
2023/12/30 02:59:29;;;;;;;20.35;9.07;;;3.60;99.90;;;;;;5059717;28;20040;-70
2023/12/30 03:01:55;;;;;;;21.85;11.95;;;3.50;99.90;;;;;;5041838;28;20120;-68
2023/12/30 03:04:21;;;;;;;21.98;12.18;;;;;;;;;;5059692;28;20037;-68
2023/12/30 03:06:47;;;;;;;20.60;11.45;;;;;;;;;;5060580;28;20021;-68
2023/12/30 03:09:13;;;;;;;20.25;10.95;;;;;;;;;;5063341;28;20037;-68
2023/12/30 03:11:39;;;;;;;19.98;10.68;;;3.50;99.90;;;;;;5063312;28;20020;-69
2023/12/30 03:14:04;;;;;;;21.90;12.45;;;3.40;99.90;;;;;;5063285;28;20337;-69
2023/12/30 03:16:31;;;;;;;22.65;12.30;;;3.20;99.90;;;;;;5063404;28;20036;-69
2023/12/30 03:18:57;;;;;;;20.48;11.48;;;;;;;;;;5063040;28;20253;-68
2023/12/30 03:21:23;;;;;;;21.85;12.05;;;3.30;99.90;;;;;;5063136;28;20040;-68
2023/12/30 03:23:49;;;;;;;22.52;12.52;;;3.20;99.90;;;;;;5063052;28;20249;-68
2023/12/30 03:26:15;;;;;;;22.13;12.60;;;3.20;99.90;;;;;;5062962;28;20032;-68
2023/12/30 03:28:40;;;;;;;21.08;11.45;;;3.20;99.90;;;;;;5062661;28;20095;-68
2023/12/30 03:31:09;;;;;;;20.25;11.48;;;3.30;99.90;;;;;;5062888;28;20053;-68
2023/12/30 03:33:34;;;;;;;23.67;11.48;;;3.50;99.90;;;;;;5063112;28;20025;-68
2023/12/30 03:36:00;;;;;;;20.98;11.35;;;3.40;99.90;;;;;;5062792;28;20040;-68
2023/12/30 03:38:26;;;;;;;26.17;13.38;;;;;;;;;;5062950;28;20048;-68
2023/12/30 03:40:52;;;;;;;24.25;12.65;;;;;;;;;;5062676;28;20036;-69
2023/12/30 03:43:17;;;;;;;25.25;14.40;;;3.60;99.90;;;;;;5062830;28;20017;-69
2023/12/30 03:45:43;;;;;;;24.88;14.65;;;;;;;;;;5062618;28;20098;-69
2023/12/30 03:48:09;;;;;;;29.52;13.10;;;3.60;99.90;;;;;;5048181;28;20237;-69
2023/12/30 03:50:36;;;;;;;25.52;14.88;;;;;;;;;;5082670;28;20086;-70
2023/12/30 03:53:02;;;;;;;24.27;12.45;;;3.20;99.90;;;;;;5082599;28;20074;-70
2023/12/30 03:55:28;;;;;;;19.95;11.35;;;;;;;;;;5082317;28;20255;-70
2023/12/30 03:57:54;;;;;;;19.42;12.25;;;;;;;;;;5074061;28;20029;-70
2023/12/30 04:00:20;;;;;;;18.50;11.27;;;3.20;99.90;;;;;;5052048;28;20088;-70
2023/12/30 04:02:49;;;;;;;26.30;12.95;;;;;;;;;;5060749;28;20324;-69
2023/12/30 04:05:15;;;;;;;21.95;11.15;;;3.20;99.90;;;;;;5062384;28;20025;-69
2023/12/30 04:07:41;;;;;;;19.77;10.50;;;;;;;;;;5040839;28;20030;-69
2023/12/30 04:10:07;;;;;;;20.98;11.32;;;3.50;99.90;;;;;;5042158;28;20096;-70
2023/12/30 04:12:35;;;;;;;20.75;11.88;;;3.60;99.90;;;;;;5042092;28;20265;-70
2023/12/30 04:15:01;;;;;;;22.50;11.40;;;3.70;99.90;;;;;;5047921;28;20052;-69
2023/12/30 04:17:27;;;;;;;18.70;11.02;;;;;;;;;;5061836;28;20032;-71
2023/12/30 04:19:52;;;;;;;17.13;10.13;;;3.40;99.90;;;;;;5061827;28;20392;-70
2023/12/30 04:22:18;;;;;;;20.42;11.10;;;3.70;99.90;;;;;;5061965;28;20025;-69
2023/12/30 04:24:44;;;;;;;18.92;9.80;;;3.40;99.90;;;;;;5062033;28;20028;-70
2023/12/30 04:27:10;;;;;;;21.15;11.18;;;;;;;;;;5062001;28;20032;-70
2023/12/30 04:29:36;;;;;;;21.42;12.15;;;;;;;;;;5061769;28;20029;-70
2023/12/30 04:32:01;;;;;;;25.40;12.80;;;3.30;99.90;;;;;;5056046;28;20073;-70
2023/12/30 04:34:27;;;;;;;19.58;10.90;;;3.40;99.90;;;;;;5042706;28;20100;-69
2023/12/30 04:36:53;;;;;;;16.88;10.35;;;3.40;99.90;;;;;;5049049;28;20058;-69
2023/12/30 04:39:18;;;;;;;19.90;11.38;;;3.40;99.90;;;;;;5082442;28;20032;-69
2023/12/30 04:41:44;;;;;;;24.45;12.23;;;3.60;99.90;;;;;;5082701;28;20221;-69
2023/12/30 04:44:10;;;;;;;24.45;10.38;;;3.30;99.90;;;;;;5082372;28;20350;-68
2023/12/30 04:46:35;;;;;;;22.13;11.98;;;3.20;99.90;;;;;;5082253;28;20036;-67
2023/12/30 04:49:02;;;;;;;19.10;10.45;;;3.10;99.90;;;;;;5081729;28;20064;-67
2023/12/30 04:51:28;;;;;;;20.67;10.20;;;3.30;99.90;;;;;;5063438;28;20313;-68
2023/12/30 04:53:54;;;;;;;21.05;10.75;;;3.00;99.90;;;;;;5061327;28;20072;-68
2023/12/30 04:56:20;;;;;;;22.40;11.93;;;;;;;;;;5061627;28;20056;-69
2023/12/30 04:58:46;;;;;;;18.85;10.23;;;;;;;;;;5061437;28;20087;-69
2023/12/30 05:01:12;;;;;;;20.17;10.55;;;3.10;99.90;;;;;;5061460;28;20048;-71
2023/12/30 05:03:41;;;;;;;18.35;10.10;;;3.40;99.90;;;;;;5061350;28;20025;-70
2023/12/30 05:06:07;;;;;;;19.95;11.63;;;;;;;;;;5043108;28;20264;-70
2023/12/30 05:08:33;;;;;;;19.05;11.13;;;3.10;99.90;;;;;;5060951;28;20088;-70
2023/12/30 05:10:59;;;;;;;21.33;11.57;;;;;;;;;;5060935;28;20032;-70
2023/12/30 05:13:25;;;;;;;20.40;10.55;;;3.00;99.90;;;;;;5060829;28;20048;-69
2023/12/30 05:15:51;;;;;;;22.27;11.60;;;;;;;;;;5060763;28;20096;-69
2023/12/30 05:18:17;;;;;;;21.13;12.20;;;2.90;99.90;;;;;;5060765;28;20039;-69
2023/12/30 05:20:43;;;;;;;21.83;10.85;;;;;;;;;;5060603;28;20048;-69
2023/12/30 05:23:08;;;;;;;25.17;12.15;;;3.00;99.90;;;;;;5043089;28;20020;-69
2023/12/30 05:25:35;;;;;;;22.92;12.25;;;;;;;;;;5060656;28;20336;-69
2023/12/30 05:28:01;;;;;;;24.30;11.95;;;;;;;;;;5060810;28;20036;-70
2023/12/30 05:30:28;;;;;;;23.63;11.63;;;;;;;;;;5060190;28;20029;-70
2023/12/30 05:32:54;;;;;;;22.55;11.38;;;;;;;;;;5060618;28;20384;-69
2023/12/30 05:35:20;;;;;;;26.23;13.23;;;;;;;;;;5060548;28;20327;-70
2023/12/30 05:37:47;;;;;;;25.67;13.88;;;;;;;;;;5060641;28;20029;-70
2023/12/30 05:40:12;;;;;;;25.48;12.68;;;3.10;99.90;;;;;;5060553;28;20244;-70
2023/12/30 05:42:38;;;;;;;26.33;12.63;;;3.20;99.90;;;;;;5060519;28;20027;-68
2023/12/30 05:45:04;;;;;;;24.67;12.85;;;;;;;;;;5060489;28;20228;-69
2023/12/30 05:47:30;;;;;;;22.05;12.63;;;;;;;;;;5060513;28;20335;-68
2023/12/30 05:49:56;;;;;;;25.90;14.18;;;;;;;;;;5057261;28;20432;-68
2023/12/30 05:52:22;;;;;;;31.25;17.17;;;;;;;;;;5060560;28;20052;-68
2023/12/30 05:54:48;;;;;;;39.95;19.42;;;;;;;;;;5060231;28;20103;-68
2023/12/30 05:57:14;;;;;;;39.05;18.65;;;;;;;;;;5060359;28;20143;-67
2023/12/30 05:59:41;;;;;;;31.67;18.17;;;3.00;99.90;;;;;;5060296;28;20095;-68
2023/12/30 06:02:08;;;;;;;35.28;17.83;;;;;;;;;;5060367;28;20021;-68
2023/12/30 06:04:33;;;;;;;34.30;17.08;;;3.70;99.90;;;;;;5060199;28;20032;-68
2023/12/30 06:06:59;;;;;;;35.35;17.42;;;;;;;;;;5060261;28;20025;-67
2023/12/30 06:09:25;;;;;;;37.25;18.83;;;3.30;99.90;;;;;;5060249;28;20386;-69
2023/12/30 06:11:50;;;;;;;37.17;19.52;;;3.30;99.90;;;;;;5060165;28;20033;-69
2023/12/30 06:14:16;;;;;;;33.47;18.27;;;3.70;99.90;;;;;;5059961;28;20044;-68
2023/12/30 06:16:42;;;;;;;42.38;19.98;;;;;;;;;;5059651;28;20124;-68
2023/12/30 06:19:08;;;;;;;35.78;18.52;;;;;;;;;;5059405;28;20021;-68
2023/12/30 06:21:34;;;;;;;40.58;20.83;;;3.50;99.90;;;;;;5059842;28;20043;-67
2023/12/30 06:24:00;;;;;;;34.58;19.50;;;;;;;;;;5060109;28;20257;-70
2023/12/30 06:26:26;;;;;;;44.03;19.55;;;;;;;;;;5060024;28;20399;-70
2023/12/30 06:28:51;;;;;;;43.63;22.15;;;3.40;99.90;;;;;;5060032;28;20067;-70
2023/12/30 06:31:17;;;;;;;41.58;21.80;;;;;;;;;;5059903;28;20029;-69
2023/12/30 06:33:43;;;;;;;38.80;20.85;;;3.50;99.90;;;;;;5059968;28;20138;-70
2023/12/30 06:36:11;;;;;;;34.13;19.40;;;;;;;;;;5042048;28;20032;-69
2023/12/30 06:38:36;;;;;;;43.05;23.55;;;3.50;99.90;;;;;;5059868;28;20283;-69
2023/12/30 06:41:06;;;;;;;46.65;24.75;;;3.50;99.90;;;;;;5059875;28;20044;-70
2023/12/30 06:43:31;;;;;;;;;;;3.60;99.90;;;;;;5064036;28;20029;-70
2023/12/30 06:45:57;;;;;;;46.38;23.67;;;;;;;;;;5064035;28;19916;-70
2023/12/30 06:48:23;;;;;;;44.83;23.55;;;;;;;;;;5068935;28;20067;-70
2023/12/30 06:50:49;;;;;;;45.50;23.85;;;;;;;;;;5081860;28;20044;-70
2023/12/30 06:53:15;;;;;;;42.17;23.40;;;;;;;;;;5083518;28;20539;-70
2023/12/30 06:55:41;;;;;;;40.47;22.48;;;4.00;99.90;;;;;;5083808;28;20024;-70
2023/12/30 06:58:08;;;;;;;42.72;23.13;;;;;;;;;;5083470;28;20028;-70
2023/12/30 07:00:34;;;;;;;44.38;21.13;;;;;;;;;;5083372;28;20036;-70
2023/12/30 07:03:00;;;;;;;39.35;22.67;;;;;;;;;;5065277;28;20036;-71
2023/12/30 07:05:26;;;;;;;35.83;21.52;;;;;;;;;;5084070;28;20032;-71
2023/12/30 07:07:51;;;;;;;35.85;20.65;;;3.90;99.90;;;;;;5084725;28;20073;-71
2023/12/30 07:10:17;;;;;;;33.90;18.45;;;;;;;;;;5085031;28;20050;-69
2023/12/30 07:12:43;;;;;;;31.08;16.95;;;3.80;99.90;;;;;;5083126;28;20565;-69
2023/12/30 07:15:09;;;;;;;32.08;17.00;;;;;;;;;;5083168;28;20337;-69
2023/12/30 07:17:35;;;;;;;31.42;16.08;;;3.70;99.90;;;;;;5083090;28;20325;-71
2023/12/30 07:20:00;;;;;;;30.25;18.20;;;3.90;99.90;;;;;;5083353;28;20039;-71
2023/12/30 07:22:28;;;;;;;29.95;17.17;;;;;;;;;;5083402;28;20074;-70
2023/12/30 07:24:54;;;;;;;27.75;17.05;;;;;;;;;;5065527;28;20032;-69
2023/12/30 07:27:20;;;;;;;29.55;17.27;;;;;;;;;;5082997;28;20074;-69
2023/12/30 07:29:45;;;;;;;28.85;15.30;;;3.90;99.90;;;;;;5082896;28;20028;-70
2023/12/30 07:32:11;;;;;;;25.15;14.70;;;4.40;99.90;;;;;;5082869;28;20035;-70
2023/12/30 07:34:37;;;;;;;24.75;14.65;;;;;;;;;;5082839;28;20032;-70
2023/12/30 07:37:04;;;;;;;26.48;14.52;;;4.30;99.90;;;;;;5082777;28;20212;-71
2023/12/30 07:39:32;;;;;;;22.38;13.48;;;;;;;;;;5082633;28;20068;-71
2023/12/30 07:41:59;;;;;;;24.67;13.27;;;;;;;;;;5082722;28;20066;-71
2023/12/30 07:44:25;;;;;;;24.70;12.52;;;;;;;;;;5082643;28;20021;-70
2023/12/30 07:46:51;;;;;;;27.52;14.27;;;;;;;;;;5082536;28;20020;-73
2023/12/30 07:49:17;;;;;;;24.77;14.48;;;4.80;99.90;;;;;;5064547;28;20068;-73
2023/12/30 07:51:43;;;;;;;27.88;15.68;;;4.90;99.90;;;;;;5082608;28;20238;-73
2023/12/30 07:54:10;;;;;;;27.13;15.00;;;;;;;;;;5082084;28;20122;-73
2023/12/30 07:56:36;;;;;;;48.17;24.20;;;;;;;;;;5064475;28;20024;-72
2023/12/30 07:59:02;;;;;;;53.22;28.58;;;;;;;;;;5082407;28;20045;-72
2023/12/30 08:01:28;;;;;;;50.13;28.50;;;5.40;99.90;;;;;;5082360;28;20255;-73
2023/12/30 08:03:54;;;;;;;43.78;25.88;;;;;;;;;;5082460;28;20028;-73
2023/12/30 08:06:20;;;;;;;45.45;28.23;;;;;;;;;;5082266;28;20078;-73
2023/12/30 08:08:46;;;;;;;54.00;30.52;;;;;;;;;;5064331;28;20078;-70
2023/12/30 08:11:12;;;;;;;55.70;31.20;;;;;;;;;;5081958;28;20028;-71
2023/12/30 08:13:38;;;;;;;60.90;33.92;;;;;;;;;;5047769;28;20059;-70
2023/12/30 08:16:04;;;;;;;58.38;33.25;;;;;;;;;;5081918;28;20091;-71
2023/12/30 08:18:30;;;;;;;74.55;33.72;;;;;;;;;;5082220;28;20039;-71
2023/12/30 08:20:56;;;;;;;53.40;30.50;;;;;;;;;;5085192;28;20067;-70
2023/12/30 08:23:22;;;;;;;56.88;30.42;;;5.50;99.90;;;;;;5081868;28;20052;-69
2023/12/30 08:25:47;;;;;;;54.17;31.88;;;5.50;99.90;;;;;;5081905;28;20028;-70
2023/12/30 08:28:13;;;;;;;49.03;29.35;;;5.50;99.90;;;;;;5081880;28;20025;-72
2023/12/30 08:30:38;;;;;;;44.55;26.60;;;5.90;99.90;;;;;;5081381;28;20355;-71
2023/12/30 08:33:07;;;;;;;33.80;20.42;;;5.90;99.90;;;;;;5081674;28;20313;-72
2023/12/30 08:35:33;;;;;;;31.23;18.27;;;6.00;99.90;;;;;;5081607;28;20080;-71
2023/12/30 08:37:58;;;;;;;31.75;19.35;;;6.30;99.90;;;;;;5063651;28;20017;-71
2023/12/30 08:40:24;;;;;;;36.92;21.20;;;6.30;99.90;;;;;;5081574;28;20102;-70
2023/12/30 08:42:51;;;;;;;36.75;22.15;;;6.30;99.90;;;;;;5081573;28;20012;-71
2023/12/30 08:45:19;;;;;;;36.70;21.38;;;6.20;99.90;;;;;;5081358;28;20332;-71
2023/12/30 08:47:46;;;;;;;39.53;20.80;;;6.50;99.90;;;;;;5063266;28;20036;-72
2023/12/30 08:50:12;;;;;;;38.38;21.00;;;6.50;99.90;;;;;;5063398;28;20043;-72
2023/12/30 08:52:38;;;;;;;36.47;20.83;;;6.80;99.90;;;;;;5081215;28;20309;-71
2023/12/30 08:55:10;;;;;;;38.65;23.15;;;6.70;99.90;;;;;;5063274;28;20066;-71
2023/12/30 08:57:36;;;;;;;43.47;24.27;;;6.50;99.90;;;;;;5081124;28;20081;-69
2023/12/30 09:00:08;;;;;;;42.20;24.27;;;6.50;99.90;;;;;;5081464;28;20268;-69
2023/12/30 09:02:37;;;;;;;36.95;23.05;;;6.50;99.90;;;;;;5081304;28;20044;-70
2023/12/30 09:05:04;;;;;;;39.83;24.13;;;6.80;99.90;;;;;;5080398;28;20074;-70
2023/12/30 09:07:31;;;;;;;43.70;25.33;;;6.80;99.90;;;;;;5081035;28;20028;-70
2023/12/30 09:09:58;;;;;;;42.13;25.42;;;6.80;99.90;;;;;;5080968;28;20328;-71
2023/12/30 09:12:24;;;;;;;40.97;24.38;;;6.70;99.90;;;;;;5081084;28;20107;-69
2023/12/30 09:14:50;;;;;;;38.55;25.02;;;6.80;99.90;;;;;;5081044;28;20036;-69
2023/12/30 09:17:16;;;;;;;40.65;24.92;;;6.70;99.90;;;;;;5062968;28;20026;-69
2023/12/30 09:19:41;;;;;;;37.00;23.08;;;7.00;99.90;;;;;;5080705;28;20062;-70
2023/12/30 09:22:08;;;;;;;37.47;22.77;;;;;;;;;;5081189;28;20024;-70
2023/12/30 09:24:34;;;;;;;32.72;21.60;;;7.60;99.90;;;;;;5080657;28;20012;-70
2023/12/30 09:27:00;;;;;;;33.05;20.90;;;7.70;99.90;;;;;;5080832;28;20062;-69
2023/12/30 09:29:26;;;;;;;50.55;28.42;;;7.50;99.90;;;;;;5080737;28;20101;-69
2023/12/30 09:31:52;;;;;;;42.33;23.92;;;;;;;;;;5080559;28;20051;-70
2023/12/30 09:34:18;;;;;;;34.92;20.88;;;8.40;99.90;;;;;;5080601;28;20307;-69
2023/12/30 09:36:44;;;;;;;34.92;21.38;;;8.30;99.90;;;;;;5080849;28;20028;-69
2023/12/30 09:39:11;;;;;;;32.88;19.80;;;8.40;99.90;;;;;;5080380;28;20347;-69
2023/12/30 09:41:40;;;;;;;28.83;18.20;;;8.40;99.90;;;;;;5062571;28;20024;-70
2023/12/30 09:44:08;;;;;;;24.13;15.98;;;8.90;99.90;;;;;;5080836;28;20038;-70
2023/12/30 09:46:37;;;;;;;21.63;14.05;;;8.90;99.90;;;;;;5062423;28;20036;-69
2023/12/30 09:49:06;;;;;;;19.55;12.75;;;9.30;99.90;;;;;;5080523;28;20120;-69
2023/12/30 09:51:33;;;;;;;17.00;11.55;;;9.50;99.90;;;;;;5080355;28;20016;-69
2023/12/30 09:53:59;;;;;;;19.75;12.05;;;9.80;99.90;;;;;;5080505;28;20028;-68
2023/12/30 09:56:26;;;;;;;15.90;11.65;;;10.20;97.20;;;;;;5079789;28;20028;-71
2023/12/30 09:58:53;;;;;;;15.48;10.70;;;10.00;98.00;;;;;;5080582;28;20059;-72
2023/12/30 10:01:20;;;;;;;16.17;10.52;;;10.10;97.10;;;;;;5062250;28;20055;-71
2023/12/30 10:03:46;;;;;;;15.60;11.05;;;11.00;96.60;;;;;;5079913;28;20021;-70
2023/12/30 10:06:17;;;;;;;16.55;11.13;;;10.40;95.40;;;;;;5080220;28;20029;-71
2023/12/30 10:08:43;;;;;;;15.57;11.23;;;10.60;92.90;;;;;;5080358;28;20075;-71
2023/12/30 10:11:10;;;;;;;19.48;11.57;;;10.80;94.00;;;;;;5080235;28;20219;-72
2023/12/30 10:13:37;;;;;;;20.52;12.35;;;10.70;91.50;;;;;;5062347;28;20336;-72
2023/12/30 10:16:05;;;;;;;20.88;13.23;;;11.00;93.10;;;;;;5081732;28;20059;-72
2023/12/30 10:18:38;;;;;;;19.67;13.52;;;12.70;91.00;;;;;;5084285;28;20032;-72
2023/12/30 10:21:05;;;;;;;26.17;15.50;;;10.90;92.50;;;;;;5079538;28;20040;-70
2023/12/30 10:23:32;;;;;;;19.75;12.20;;;10.80;90.00;;;;;;5084189;28;20028;-72
2023/12/30 10:25:59;;;;;;;19.45;14.05;;;11.00;91.60;;;;;;5084145;28;20152;-72
2023/12/30 10:28:24;;;;;;;19.45;12.32;;;10.90;91.30;;;;;;5066105;28;20344;-71
2023/12/30 10:31:04;;;;;;;18.92;11.20;;;11.00;91.20;;;;;;5077124;28;20017;-71
2023/12/30 10:33:30;;;;;;;13.77;10.00;;;10.90;90.40;;;;;;5044225;28;20036;-72
2023/12/30 10:35:56;;;;;;;13.05;9.57;;;11.10;85.60;;;;;;5049797;28;20052;-72
2023/12/30 10:38:23;;;;;;;14.57;8.65;;;11.10;90.00;;;;;;5064498;28;20028;-71
2023/12/30 10:40:50;;;;;;;12.95;8.48;;;11.30;87.40;;;;;;5062680;28;20037;-71
2023/12/30 10:43:17;;;;;;;11.25;7.70;;;11.40;85.30;;;;;;5043858;28;20017;-72
2023/12/30 10:45:42;;;;;;;11.13;8.07;;;11.30;79.70;;;;;;5043747;28;20030;-73
2023/12/30 10:48:08;;;;;;;13.40;8.40;;;;;;;;;;5062349;28;20050;-72
2023/12/30 10:50:38;;;;;;;10.68;7.60;;;11.30;78.50;;;;;;5083803;28;20029;-72
2023/12/30 10:53:13;;;;;;;10.77;7.05;;;11.40;77.10;;;;;;5083657;28;20363;-73
2023/12/30 10:55:48;;;;;;;10.60;7.05;;;11.20;77.30;;;;;;5079757;28;20386;-70
2023/12/30 10:58:19;;;;;;;10.32;7.50;;;11.30;82.70;;;;;;5072749;28;20020;-71
2023/12/30 11:00:51;;;;;;;10.98;7.25;;;11.50;81.80;;;;;;5083290;28;20043;-70
2023/12/30 11:03:17;;;;;;;13.70;7.55;;;11.50;75.70;;;;;;5066116;28;20045;-70
2023/12/30 11:06:09;;;;;;;11.27;7.35;;;11.50;81.60;;;;;;5062314;28;20194;-70
2023/12/30 11:08:36;;;;;;;8.75;6.43;;;11.70;75.20;;;;;;5032453;28;20044;-71
2023/12/30 11:11:03;;;;;;;10.15;7.63;;;11.80;74.60;;;;;;5063199;28;20096;-71
2023/12/30 11:13:41;;;;;;;12.55;7.35;;;11.90;80.30;;;;;;5046260;28;20031;-71
2023/12/30 11:16:15;;;;;;;10.00;6.30;;;11.80;74.60;;;;;;5083292;28;20034;-70
2023/12/30 11:18:47;;;;;;;14.50;8.65;;;11.80;78.90;;;;;;5082969;28;20047;-70
2023/12/30 11:21:31;;;;;;;9.57;6.38;;;12.00;72.90;;;;;;5088291;28;20035;-70
2023/12/30 11:24:02;;;;;;;11.18;7.05;;;12.10;71.20;;;;;;5072042;28;20036;-70
2023/12/30 11:26:30;;;;;;;9.50;6.20;;;12.10;77.80;;;;;;5073962;28;20054;-70
2023/12/30 11:29:03;;;;;;;7.78;5.72;;;12.50;77.50;;;;;;5087721;28;20224;-70
2023/12/30 11:31:32;;;;;;;6.78;5.28;;;13.10;76.00;;;;;;5085398;28;20038;-70
2023/12/30 11:34:01;;;;;;;;;;;12.60;70.40;;;;;;5056276;28;20024;-70
2023/12/30 11:36:28;;;;;;;6.10;5.18;;;12.70;69.30;;;;;;5065188;28;19917;-70
2023/12/30 11:38:58;;;;;;;8.00;5.80;;;13.10;75.60;;;;;;5090048;28;20032;-70
2023/12/30 11:41:25;;;;;;;6.20;4.57;;;12.90;70.10;;;;;;5100351;28;20055;-71
2023/12/30 11:43:52;;;;;;;9.00;5.32;;;13.00;69.70;;;;;;5061321;28;20225;-71
2023/12/30 11:46:17;;;;;;;7.13;5.40;;;13.30;68.70;;;;;;5080510;28;20026;-71
2023/12/30 11:48:45;;;;;;;6.45;4.70;;;13.50;68.40;;;;;;5083800;28;20053;-71
2023/12/30 11:51:22;;;;;;;6.40;4.65;;;13.70;65.70;;;;;;5081603;28;20317;-72
2023/12/30 11:53:48;;;;;;;7.85;5.22;;;13.70;71.20;;;;;;5063224;28;20313;-71
2023/12/30 11:56:19;;;;;;;5.00;3.45;;;13.70;69.90;;;;;;5063794;28;20025;-71
2023/12/30 11:58:45;;;;;;;4.72;3.00;;;13.60;69.60;;;;;;5082341;28;20025;-72
2023/12/30 12:01:12;;;;;;;4.68;3.10;;;13.70;68.20;;;;;;5080882;28;20425;-72
2023/12/30 12:03:39;;;;;;;4.68;3.17;;;14.10;68.40;;;;;;5080818;28;20083;-72
2023/12/30 12:06:07;;;;;;;2.75;1.73;;;13.70;67.40;;;;;;5083469;28;20025;-73
2023/12/30 12:08:33;;;;;;;1.88;1.17;;;13.90;62.60;;;;;;5053898;28;20056;-72
2023/12/30 12:10:59;;;;;;;2.67;1.95;;;13.70;66.10;;;;;;5063681;28;20483;-72
2023/12/30 12:13:25;;;;;;;1.75;1.60;;;13.80;60.80;;;;;;5081770;28;20139;-72
2023/12/30 12:15:52;;;;;;;3.15;1.90;;;13.80;66.70;;;;;;5082065;28;20035;-72
2023/12/30 12:18:20;;;;;;;2.30;1.40;;;14.00;59.90;;;;;;5082256;28;20043;-72
2023/12/30 12:20:45;;;;;;;1.88;1.52;;;13.90;65.30;;;;;;5081768;28;20036;-72
2023/12/30 12:23:12;;;;;;;2.45;1.58;;;13.90;65.60;;;;;;5083813;28;20069;-72
2023/12/30 12:25:39;;;;;;;2.20;1.38;;;14.30;64.60;;;;;;5081820;28;20225;-72
2023/12/30 12:28:12;;;;;;;2.17;1.40;;;14.50;64.70;;;;;;5081870;28;20075;-73
2023/12/30 12:30:38;;;;;;;2.55;1.50;;;14.60;64.20;;;;;;5081603;28;20035;-72
2023/12/30 12:33:05;;;;;;;3.00;1.42;;;14.40;59.80;;;;;;5081795;28;20079;-72
2023/12/30 12:35:31;;;;;;;2.67;1.30;;;14.40;59.80;;;;;;5081723;28;20028;-72
2023/12/30 12:37:59;;;;;;;4.15;1.35;;;14.20;59.20;;;;;;5081913;28;20044;-72
2023/12/30 12:40:25;;;;;;;1.88;1.55;;;13.80;64.80;;;;;;5063665;28;20323;-72
2023/12/30 12:42:51;;;;;;;1.40;1.30;;;13.50;65.20;;;;;;5081601;28;20039;-72
2023/12/30 12:45:17;;;;;;;1.80;1.23;;;13.90;65.70;;;;;;5081625;28;20378;-71
2023/12/30 12:47:43;;;;;;;1.48;1.27;;;13.50;65.50;;;;;;5081458;28;20024;-71
2023/12/30 12:50:09;;;;;;;2.10;1.63;;;14.10;65.40;;;;;;5063270;28;20197;-71
2023/12/30 12:52:35;;;;;;;2.33;1.60;;;13.90;60.50;;;;;;5081405;28;20032;-72
2023/12/30 12:55:01;;;;;;;2.97;1.60;;;14.80;59.70;;;;;;5081455;28;20028;-72
2023/12/30 12:57:27;;;;;;;1.70;1.50;;;17.10;56.30;;;;;;5081186;28;20381;-73
2023/12/30 12:59:52;;;;;;;2.03;1.77;;;17.10;55.70;;;;;;5081142;28;20100;-73
2023/12/30 13:02:18;;;;;;;2.97;1.80;;;17.80;50.70;;;;;;5081111;28;20031;-72
2023/12/30 13:04:44;;;;;;;3.60;1.80;;;17.70;51.90;;;;;;5081398;28;20071;-72
2023/12/30 13:07:11;;;;;;;1.80;1.38;;;17.10;51.70;;;;;;5081041;28;20024;-72
2023/12/30 13:12:03;;;;;;;2.10;1.90;;;14.60;58.00;;;;;;5081353;28;20024;-72